createdAt,value
2018-05-09T00:01:28.840Z,70.20
2018-05-09T00:03:58.127Z,70.10
2018-05-09T00:06:28.186Z,70.10
2018-05-09T00:08:57.473Z,70.10
2018-05-09T00:11:26.778Z,70.20
2018-05-09T00:13:56.071Z,70.50
2018-05-09T00:16:25.359Z,71.20
2018-05-09T00:18:54.651Z,70.90
2018-05-09T00:21:23.962Z,71.00
2018-05-09T00:23:53.328Z,71.80
2018-05-09T00:26:22.540Z,72.00
2018-05-09T00:28:52.589Z,72.20
2018-05-09T00:31:21.880Z,72.10
2018-05-09T00:33:51.179Z,72.20
2018-05-09T00:36:20.457Z,72.30
2018-05-09T00:38:51.353Z,72.30
2018-05-09T00:41:20.665Z,72.30
2018-05-09T00:43:49.982Z,72.90
2018-05-09T00:46:20.043Z,73.90
2018-05-09T00:48:49.328Z,73.90
2018-05-09T00:51:18.630Z,74.10
2018-05-09T00:53:48.589Z,73.90
2018-05-09T00:56:18.658Z,73.70
2018-05-09T00:58:48.705Z,73.90
2018-05-09T01:01:17.997Z,73.80
2018-05-09T01:03:47.289Z,75.10
2018-05-09T01:06:16.649Z,75.30
2018-05-09T01:08:45.949Z,75.40
2018-05-09T01:11:15.253Z,75.00
2018-05-09T01:13:44.569Z,75.40
2018-05-09T01:16:14.651Z,76.00
2018-05-09T01:18:43.926Z,76.00
2018-05-09T01:21:13.785Z,75.70
2018-05-09T01:23:43.097Z,75.60
2018-05-09T01:26:13.165Z,75.90
2018-05-09T01:28:42.453Z,75.90
2018-05-09T01:31:11.758Z,76.60
2018-05-09T01:33:41.074Z,77.60
2018-05-09T01:36:10.383Z,77.40
2018-05-09T01:38:39.663Z,77.50
2018-05-09T01:41:08.941Z,77.80
2018-05-09T01:43:38.238Z,78.50
2018-05-09T01:46:07.528Z,78.40
2018-05-09T01:48:37.594Z,77.90
2018-05-09T01:51:06.877Z,77.90
2018-05-09T01:53:36.152Z,78.80
2018-05-09T01:56:06.211Z,80.00
2018-05-09T01:58:35.502Z,79.90
2018-05-09T02:01:04.859Z,79.80
2018-05-09T02:03:34.089Z,80.00
2018-05-09T02:06:03.438Z,80.60
2018-05-09T02:08:32.677Z,80.50
2018-05-09T02:11:01.976Z,79.90
2018-05-09T02:13:31.262Z,80.90
2018-05-09T02:16:01.312Z,81.60
2018-05-09T02:18:30.603Z,81.50
2018-05-09T02:20:59.887Z,81.30
2018-05-09T02:23:29.954Z,82.00
2018-05-09T02:25:59.237Z,81.90
2018-05-09T02:28:28.554Z,82.30
2018-05-09T02:30:57.817Z,82.10
2018-05-09T02:33:27.101Z,82.70
2018-05-09T02:35:57.167Z,82.90
2018-05-09T02:38:26.449Z,82.90
2018-05-09T02:40:55.754Z,82.90
2018-05-09T02:43:25.025Z,83.20
2018-05-09T02:45:55.087Z,83.00
2018-05-09T02:48:24.390Z,83.00
2018-05-09T02:50:53.674Z,83.10
2018-05-09T02:53:22.973Z,83.80
2018-05-09T02:55:52.274Z,83.40
2018-05-09T02:58:21.533Z,83.70
2018-05-09T03:00:50.824Z,83.10
2018-05-09T03:03:20.140Z,84.40
2018-05-09T03:05:50.217Z,84.00
2018-05-09T03:08:19.511Z,84.00
2018-05-09T03:10:48.806Z,83.60
2018-05-09T03:13:18.078Z,83.50
2018-05-09T03:15:47.356Z,83.80
2018-05-09T03:18:18.280Z,84.50
2018-05-09T03:20:47.577Z,84.50
2018-05-09T03:23:16.877Z,84.80
2018-05-09T03:25:46.161Z,84.80
2018-05-09T03:28:15.458Z,84.80
2018-05-09T03:30:44.753Z,85.00
2018-05-09T03:33:14.202Z,85.80
2018-05-09T03:35:44.260Z,86.20
2018-05-09T03:38:13.545Z,86.10
2018-05-09T03:40:42.850Z,86.80
2018-05-09T03:43:12.182Z,87.30
2018-05-09T03:45:41.464Z,87.30
2018-05-09T03:48:10.819Z,87.20
2018-05-09T03:50:40.114Z,86.80
2018-05-09T03:53:09.431Z,87.00
2018-05-09T03:55:39.493Z,87.30
2018-05-09T03:58:08.773Z,87.30
2018-05-09T04:00:38.070Z,88.10
2018-05-09T04:03:25.198Z,87.90
2018-05-09T04:06:12.291Z,87.60
2018-05-09T04:09:00.063Z,87.90
2018-05-09T04:11:29.350Z,88.00
2018-05-09T04:13:58.659Z,88.20
2018-05-09T04:16:27.937Z,89.40
2018-05-09T04:18:57.226Z,89.00
2018-05-09T04:21:27.274Z,89.20
2018-05-09T04:23:56.578Z,89.20
2018-05-09T04:26:25.878Z,89.10
2018-05-09T04:28:55.180Z,89.20
2018-05-09T04:31:24.486Z,89.50
2018-05-09T04:33:53.762Z,89.30
2018-05-09T04:36:23.052Z,89.40
2018-05-09T04:38:52.356Z,89.40
2018-05-09T04:41:21.667Z,89.60
2018-05-09T04:43:50.988Z,89.70
2018-05-09T04:46:20.307Z,90.10
2018-05-09T04:48:49.608Z,89.80
2018-05-09T04:51:18.920Z,89.00
2018-05-09T04:53:48.203Z,87.90
2018-05-09T04:56:17.490Z,85.80
2018-05-09T04:58:47.545Z,81.80
2018-05-09T05:01:16.845Z,81.80
2018-05-09T05:03:46.150Z,80.60
2018-05-09T05:06:15.441Z,78.90
2018-05-09T05:08:44.750Z,76.40
2018-05-09T05:11:14.047Z,74.60
2018-05-09T05:13:43.346Z,73.50
2018-05-09T05:16:13.451Z,72.80
2018-05-09T05:18:42.741Z,72.30
2018-05-09T05:21:12.056Z,71.00
2018-05-09T05:23:41.357Z,69.90
2018-05-09T05:26:10.658Z,67.60
2018-05-09T05:28:40.038Z,66.90
2018-05-09T05:31:09.332Z,67.00
2018-05-09T05:33:38.656Z,66.10
2018-05-09T05:36:08.679Z,66.90
2018-05-09T05:38:37.990Z,65.00
2018-05-09T05:41:07.314Z,64.30
2018-05-09T05:43:37.378Z,63.10
2018-05-09T05:46:06.665Z,63.10
2018-05-09T05:48:35.960Z,62.40
2018-05-09T05:51:05.248Z,62.50
2018-05-09T05:53:34.543Z,61.50
2018-05-09T05:56:03.860Z,61.80
2018-05-09T05:58:33.145Z,62.00
2018-05-09T06:01:02.440Z,62.30
2018-05-09T06:03:31.725Z,63.40
2018-05-09T06:06:01.023Z,62.00
2018-05-09T06:08:30.335Z,61.20
2018-05-09T06:10:59.630Z,61.30
2018-05-09T06:13:29.727Z,61.40
2018-05-09T06:15:59.023Z,61.40
2018-05-09T06:18:28.293Z,62.00
2018-05-09T06:20:57.618Z,61.30
2018-05-09T06:23:26.910Z,61.20
2018-05-09T06:25:56.200Z,62.50
2018-05-09T06:28:25.503Z,63.00
2018-05-09T06:30:54.792Z,61.90
2018-05-09T06:33:24.190Z,62.00
2018-05-09T06:35:53.516Z,61.00
2018-05-09T06:38:22.828Z,61.30
2018-05-09T06:40:52.118Z,61.70
2018-05-09T06:43:21.418Z,62.60
2018-05-09T06:45:50.702Z,64.00
2018-05-09T06:48:20.021Z,63.20
2018-05-09T06:50:49.308Z,63.80
2018-05-09T06:53:18.599Z,62.90
2018-05-09T06:55:47.908Z,61.60
2018-05-09T06:58:17.186Z,62.00
2018-05-09T07:00:46.467Z,63.10
2018-05-09T07:03:17.481Z,62.70
2018-05-09T07:05:46.779Z,62.70
2018-05-09T07:08:16.067Z,59.10
2018-05-09T07:10:45.371Z,59.40
2018-05-09T07:13:16.173Z,58.70
2018-05-09T07:15:45.527Z,58.70
2018-05-09T07:18:14.792Z,58.90
2018-05-09T07:20:44.081Z,58.50
2018-05-09T07:23:15.318Z,59.10
2018-05-09T07:25:44.560Z,58.70
2018-05-09T07:28:13.847Z,59.70
2018-05-09T07:30:43.159Z,59.40
2018-05-09T07:33:12.515Z,59.00
2018-05-09T07:35:41.784Z,59.40
2018-05-09T07:38:11.077Z,58.70
2018-05-09T07:40:41.136Z,59.30
2018-05-09T07:43:10.437Z,59.20
2018-05-09T07:45:39.868Z,59.40
2018-05-09T07:48:09.958Z,59.50
2018-05-09T07:50:39.234Z,59.50
2018-05-09T07:53:09.308Z,60.00
2018-05-09T07:55:39.273Z,59.90
2018-05-09T07:58:08.524Z,61.50
2018-05-09T08:00:37.821Z,60.70
2018-05-09T08:03:07.152Z,60.60
2018-05-09T08:05:36.417Z,61.10
2018-05-09T08:08:05.706Z,61.40
2018-05-09T08:10:34.993Z,61.50
2018-05-09T08:13:04.279Z,61.40
2018-05-09T08:15:33.560Z,61.60
2018-05-09T08:18:03.631Z,61.00
2018-05-09T08:20:32.917Z,60.90
2018-05-09T08:23:02.215Z,61.00
2018-05-09T08:25:31.515Z,61.50
2018-05-09T08:28:00.809Z,60.30
2018-05-09T08:30:30.185Z,60.50
2018-05-09T08:32:59.410Z,61.50
2018-05-09T08:35:28.713Z,60.80
2018-05-09T08:37:58.006Z,59.80
2018-05-09T08:40:27.309Z,59.90
2018-05-09T08:42:56.609Z,60.60
2018-05-09T08:45:25.890Z,61.10
2018-05-09T08:47:55.974Z,61.40
2018-05-09T08:50:25.273Z,61.40
2018-05-09T08:52:54.556Z,61.60
2018-05-09T08:55:23.934Z,60.40
2018-05-09T08:57:53.184Z,60.00
2018-05-09T09:00:22.471Z,59.50
2018-05-09T09:02:51.795Z,58.90
2018-05-09T09:05:21.126Z,59.60
2018-05-09T09:07:50.432Z,59.70
2018-05-09T09:10:19.768Z,59.50
2018-05-09T09:12:49.057Z,59.80
2018-05-09T09:15:18.399Z,59.50
2018-05-09T09:17:47.663Z,60.80
2018-05-09T09:20:16.957Z,60.30
2018-05-09T09:22:46.244Z,60.20
2018-05-09T09:25:15.544Z,61.90
2018-05-09T09:27:44.847Z,61.80
2018-05-09T09:30:14.136Z,62.50
2018-05-09T09:32:43.444Z,62.50
2018-05-09T09:35:12.730Z,63.30
2018-05-09T09:37:42.014Z,63.30
2018-05-09T09:40:12.081Z,62.90
2018-05-09T09:42:41.402Z,62.80
2018-05-09T09:45:10.691Z,62.10
2018-05-09T09:47:39.993Z,61.10
2018-05-09T09:50:10.376Z,61.50
2018-05-09T09:52:39.682Z,61.00
2018-05-09T09:55:08.996Z,59.80
2018-05-09T09:57:38.299Z,61.00
2018-05-09T10:00:07.589Z,61.20
2018-05-09T10:02:36.869Z,59.90
2018-05-09T10:05:06.936Z,59.10
2018-05-09T10:07:37.033Z,59.30
2018-05-09T10:10:06.313Z,59.30
2018-05-09T10:12:36.362Z,59.20
2018-05-09T10:15:05.662Z,59.20
2018-05-09T10:17:34.932Z,59.00
2018-05-09T10:20:04.986Z,58.00
2018-05-09T10:22:34.277Z,58.00
2018-05-09T10:25:03.591Z,58.70
2018-05-09T10:27:32.877Z,59.30
2018-05-09T10:30:02.175Z,60.10
2018-05-09T10:32:31.479Z,60.60
2018-05-09T10:35:00.773Z,60.40
2018-05-09T10:37:30.076Z,60.40
2018-05-09T10:39:59.357Z,60.50
2018-05-09T10:42:28.642Z,60.40
2018-05-09T10:44:58.690Z,59.10
2018-05-09T10:47:27.996Z,59.10
2018-05-09T10:49:58.015Z,58.80
2018-05-09T10:52:27.296Z,58.80
2018-05-09T10:54:56.591Z,59.40
2018-05-09T10:57:26.658Z,58.80
2018-05-09T10:59:55.952Z,58.80
2018-05-09T11:02:25.237Z,57.90
2018-05-09T11:04:54.532Z,58.80
2018-05-09T11:07:23.823Z,58.40
2018-05-09T11:09:53.116Z,57.70
2018-05-09T11:12:22.404Z,57.70
2018-05-09T11:14:52.452Z,58.90
2018-05-09T11:17:21.747Z,58.80
2018-05-09T11:19:51.053Z,57.60
2018-05-09T11:22:20.346Z,57.30
2018-05-09T11:24:49.634Z,57.00
2018-05-09T11:27:19.777Z,58.00
2018-05-09T11:29:49.088Z,58.50
2018-05-09T11:32:18.357Z,60.30
2018-05-09T11:34:47.666Z,60.10
2018-05-09T11:37:17.026Z,60.10
2018-05-09T11:39:46.296Z,60.80
2018-05-09T11:42:15.572Z,59.70
2018-05-09T11:44:44.909Z,59.90
2018-05-09T11:47:14.154Z,59.40
2018-05-09T11:49:44.215Z,59.40
2018-05-09T11:52:13.503Z,59.40
2018-05-09T11:54:42.821Z,59.70
2018-05-09T11:57:12.097Z,60.20
2018-05-09T11:59:41.408Z,59.60
2018-05-09T12:02:10.794Z,59.30
2018-05-09T12:04:39.998Z,59.40
2018-05-09T12:07:09.289Z,59.40
2018-05-09T12:09:38.695Z,59.30
2018-05-09T12:12:08.026Z,59.80
2018-05-09T12:14:37.319Z,59.30
2018-05-09T12:17:06.609Z,58.80
2018-05-09T12:19:35.912Z,59.60
2018-05-09T12:22:05.238Z,58.70
2018-05-09T12:24:34.526Z,58.60
2018-05-09T12:27:03.791Z,57.60
2018-05-09T12:29:33.106Z,58.50
2018-05-09T12:32:02.390Z,58.20
2018-05-09T12:34:32.498Z,57.40
2018-05-09T12:37:02.553Z,57.60
2018-05-09T12:39:31.850Z,57.60
2018-05-09T12:42:01.133Z,57.60
2018-05-09T12:44:30.423Z,58.30
2018-05-09T12:46:59.715Z,57.30
2018-05-09T12:49:29.766Z,57.60
2018-05-09T12:51:59.062Z,57.40
2018-05-09T12:54:28.422Z,57.50
2018-05-09T12:56:57.737Z,58.30
2018-05-09T12:59:27.778Z,58.10
2018-05-09T13:01:57.057Z,58.20
2018-05-09T13:04:26.391Z,58.10
2018-05-09T13:06:55.670Z,57.60
2018-05-09T13:09:24.975Z,57.90
2018-05-09T13:11:54.258Z,58.40
2018-05-09T13:14:23.562Z,57.50
2018-05-09T13:16:52.884Z,56.70
2018-05-09T13:19:22.182Z,56.80
2018-05-09T13:21:51.457Z,56.20
2018-05-09T13:24:20.777Z,55.70
2018-05-09T13:26:50.040Z,56.40
2018-05-09T13:29:20.107Z,56.60
2018-05-09T13:31:49.419Z,56.30
2018-05-09T13:34:18.711Z,55.80
2018-05-09T13:36:47.996Z,55.30
2018-05-09T13:39:17.306Z,56.50
2018-05-09T13:41:46.601Z,55.50
2018-05-09T13:44:15.908Z,55.90
2018-05-09T13:46:45.222Z,56.70
2018-05-09T13:49:14.544Z,57.70
2018-05-09T13:51:43.867Z,58.00
2018-05-09T13:54:13.922Z,58.40
2018-05-09T13:56:43.206Z,58.30
2018-05-09T13:59:12.607Z,57.90
2018-05-09T14:01:41.876Z,57.60
2018-05-09T14:04:11.190Z,56.50
2018-05-09T14:06:40.491Z,56.30
2018-05-09T14:09:09.798Z,57.20
2018-05-09T14:11:39.876Z,55.60
2018-05-09T14:14:09.201Z,55.60
2018-05-09T14:16:38.494Z,56.70
2018-05-09T14:19:07.801Z,53.60
2018-05-09T14:21:37.088Z,53.70
2018-05-09T14:24:06.408Z,53.70
2018-05-09T14:26:35.700Z,53.30
2018-05-09T14:29:05.519Z,53.90
2018-05-09T14:31:35.405Z,52.40
2018-05-09T14:34:04.697Z,52.90
2018-05-09T14:36:34.002Z,54.80
2018-05-09T14:39:03.315Z,56.30
2018-05-09T14:41:32.633Z,54.90
2018-05-09T14:44:01.934Z,55.40
2018-05-09T14:46:31.242Z,54.10
2018-05-09T14:49:00.526Z,55.20
2018-05-09T14:51:29.812Z,54.50
2018-05-09T14:53:59.129Z,54.50
2018-05-09T14:56:28.433Z,54.40
2018-05-09T14:58:57.729Z,55.00
2018-05-09T15:01:27.002Z,55.40
2018-05-09T15:03:56.304Z,53.60
2018-05-09T15:06:25.601Z,53.50
2018-05-09T15:08:54.891Z,53.80
2018-05-09T15:11:24.189Z,53.70
2018-05-09T15:13:53.472Z,52.80
2018-05-09T15:16:22.769Z,52.60
2018-05-09T15:18:52.806Z,52.40
2018-05-09T15:21:22.112Z,52.40
2018-05-09T15:23:51.445Z,51.40
2018-05-09T15:26:20.685Z,51.80
2018-05-09T15:28:49.975Z,51.90
2018-05-09T15:31:19.267Z,51.90
2018-05-09T15:33:48.548Z,50.80
2018-05-09T15:36:17.850Z,50.70
2018-05-09T15:38:47.151Z,50.90
2018-05-09T15:41:16.450Z,50.20
2018-05-09T15:43:45.764Z,50.90
2018-05-09T15:46:15.068Z,49.20
2018-05-09T15:48:44.384Z,49.50
2018-05-09T15:51:13.662Z,48.60
2018-05-09T15:53:42.991Z,48.90
2018-05-09T15:56:12.298Z,48.30
2018-05-09T15:58:41.565Z,48.10
2018-05-09T16:01:10.867Z,48.10
2018-05-09T16:03:40.167Z,48.60
2018-05-09T16:06:09.451Z,48.80
2018-05-09T16:08:38.750Z,48.70
2018-05-09T16:11:08.077Z,48.20
2018-05-09T16:13:38.150Z,49.70
2018-05-09T16:16:07.512Z,49.70
2018-05-09T16:18:37.567Z,49.10
2018-05-09T16:21:06.861Z,49.10
2018-05-09T16:23:37.223Z,48.40
2018-05-09T16:26:07.352Z,48.00
2018-05-09T16:28:37.485Z,48.80
2018-05-09T16:31:07.927Z,47.50
2018-05-09T16:33:37.797Z,47.20
2018-05-09T16:36:08.117Z,45.20
2018-05-09T16:38:37.538Z,45.20
2018-05-09T16:41:06.833Z,45.30
2018-05-09T16:43:36.221Z,44.50
2018-05-09T16:46:05.463Z,44.80
2018-05-09T16:48:35.505Z,45.20
2018-05-09T16:51:04.794Z,45.10
2018-05-09T16:53:34.125Z,46.50
2018-05-09T16:56:03.434Z,44.70
2018-05-09T16:58:32.756Z,44.20
2018-05-09T17:01:02.145Z,44.60
2018-05-09T17:03:31.382Z,43.90
2018-05-09T17:06:00.665Z,43.70
2018-05-09T17:08:29.957Z,44.30
2018-05-09T17:10:59.259Z,44.40
2018-05-09T17:13:28.554Z,43.50
2018-05-09T17:15:57.863Z,43.20
2018-05-09T17:18:27.298Z,43.30
2018-05-09T17:20:56.619Z,44.30
2018-05-09T17:23:25.998Z,44.20
2018-05-09T17:25:55.276Z,43.30
2018-05-09T17:28:24.577Z,44.90
2018-05-09T17:30:53.953Z,44.30
2018-05-09T17:33:23.262Z,44.20
2018-05-09T17:35:52.563Z,44.10
2018-05-09T17:38:21.879Z,44.00
2018-05-09T17:40:51.173Z,44.70
2018-05-09T17:43:20.469Z,44.20
2018-05-09T17:45:49.747Z,45.10
2018-05-09T17:48:19.055Z,44.80
2018-05-09T17:50:49.255Z,44.90
2018-05-09T17:53:18.561Z,44.90
2018-05-09T17:55:47.887Z,45.70
2018-05-09T17:58:17.181Z,46.10
2018-05-09T18:00:46.505Z,45.90
2018-05-09T18:03:16.078Z,47.10
2018-05-09T18:05:45.387Z,47.50
2018-05-09T18:08:14.743Z,48.10
2018-05-09T18:10:44.821Z,50.80
2018-05-09T18:13:14.114Z,50.80
2018-05-09T18:15:43.419Z,52.00
2018-05-09T18:18:12.713Z,52.90
2018-05-09T18:20:42.030Z,52.60
2018-05-09T18:23:11.352Z,52.70
2018-05-09T18:25:40.912Z,53.20
2018-05-09T18:28:10.222Z,53.10
2018-05-09T18:30:39.643Z,52.30
2018-05-09T18:33:09.165Z,52.60
2018-05-09T18:35:39.237Z,53.40
2018-05-09T18:38:08.534Z,53.40
2018-05-09T18:40:37.833Z,54.40
2018-05-09T18:43:07.202Z,54.60
2018-05-09T18:45:36.546Z,55.10
2018-05-09T18:48:05.829Z,55.50
2018-05-09T18:50:35.134Z,55.80
2018-05-09T18:53:04.453Z,55.60
2018-05-09T18:55:33.755Z,54.80
2018-05-09T18:58:03.067Z,54.70
2018-05-09T19:00:32.417Z,55.00
2018-05-09T19:03:02.470Z,56.50
2018-05-09T19:05:31.783Z,56.40
2018-05-09T19:08:01.077Z,56.40
2018-05-09T19:10:30.377Z,56.70
2018-05-09T19:12:59.655Z,57.30
2018-05-09T19:15:29.013Z,57.90
2018-05-09T19:17:58.497Z,58.60
2018-05-09T19:20:27.800Z,59.20
2018-05-09T19:22:57.093Z,58.50
2018-05-09T19:25:26.374Z,58.80
2018-05-09T19:27:55.707Z,59.00
2018-05-09T19:30:24.999Z,59.30
2018-05-09T19:32:54.294Z,59.40
2018-05-09T19:35:23.571Z,60.20
2018-05-09T19:37:52.885Z,61.30
2018-05-09T19:40:22.190Z,61.10
2018-05-09T19:42:51.511Z,61.30
2018-05-09T19:45:20.783Z,60.90
2018-05-09T19:47:50.073Z,61.00
2018-05-09T19:50:20.297Z,61.60
2018-05-09T19:52:49.603Z,61.80
2018-05-09T19:55:18.902Z,61.30
2018-05-09T19:57:48.473Z,61.00
2018-05-09T20:00:18.572Z,59.20
2018-05-09T20:02:47.882Z,59.20
2018-05-09T20:05:17.204Z,58.80
2018-05-09T20:07:46.503Z,58.60
2018-05-09T20:10:15.806Z,60.40
2018-05-09T20:12:49.166Z,60.80
2018-05-09T20:15:19.470Z,61.70
2018-05-09T20:17:48.760Z,59.90
2018-05-09T20:20:18.054Z,61.00
2018-05-09T20:22:47.574Z,63.60
2018-05-09T20:25:16.928Z,65.50
2018-05-09T20:27:47.280Z,74.90
2018-05-09T20:30:21.985Z,74.90
2018-05-09T20:32:51.985Z,71.30
2018-05-09T20:35:22.941Z,76.30
2018-05-09T20:37:52.250Z,76.10
2018-05-09T20:40:21.610Z,75.10
2018-05-09T20:42:50.922Z,78.00
2018-05-09T20:45:21.045Z,77.10
2018-05-09T20:47:51.216Z,75.20
2018-05-09T20:50:20.503Z,75.10
2018-05-09T20:52:49.832Z,75.00
2018-05-09T20:55:28.798Z,79.90
2018-05-09T20:57:58.844Z,82.00
2018-05-09T21:00:28.154Z,81.90
2018-05-09T21:02:57.455Z,77.00
2018-05-09T21:05:26.948Z,76.20
2018-05-09T21:07:58.000Z,83.90
2018-05-09T21:10:27.301Z,78.90
2018-05-09T21:12:56.583Z,79.80
2018-05-09T21:15:25.863Z,79.70
2018-05-09T21:17:55.157Z,80.00
2018-05-09T21:20:25.240Z,85.50
2018-05-09T21:22:54.541Z,85.70
2018-05-09T21:25:23.822Z,86.40
2018-05-09T21:27:53.115Z,85.40
2018-05-09T21:30:22.436Z,81.70
2018-05-09T21:32:51.727Z,89.10
2018-05-09T21:35:21.095Z,84.80
2018-05-09T21:37:50.318Z,81.80
2018-05-09T21:40:19.603Z,83.10
2018-05-09T21:42:48.888Z,84.30
2018-05-09T21:45:18.193Z,88.80
2018-05-09T21:47:47.483Z,82.20
2018-05-09T21:50:17.550Z,82.90
2018-05-09T21:52:46.871Z,82.90
2018-05-09T21:55:16.147Z,84.80
2018-05-09T21:57:45.448Z,86.70
2018-05-09T22:00:14.762Z,87.50
2018-05-09T22:02:44.173Z,85.70
2018-05-09T22:05:13.380Z,86.80
2018-05-09T22:07:42.681Z,87.80
2018-05-09T22:10:11.981Z,88.80
2018-05-09T22:12:41.290Z,87.50
2018-05-09T22:15:10.578Z,86.30
2018-05-09T22:17:39.874Z,86.90
2018-05-09T22:20:09.179Z,87.40
2018-05-09T22:22:38.469Z,90.50
2018-05-09T22:25:07.784Z,90.00
2018-05-09T22:27:37.071Z,90.00
2018-05-09T22:30:06.359Z,90.40
2018-05-09T22:32:35.666Z,87.40
2018-05-09T22:35:04.937Z,89.80
2018-05-09T22:37:34.241Z,89.00
2018-05-09T22:40:03.535Z,89.50
2018-05-09T22:42:32.843Z,90.10
2018-05-09T22:45:02.132Z,90.60
2018-05-09T22:47:31.439Z,91.20
2018-05-09T22:50:00.739Z,90.50
2018-05-09T22:52:30.045Z,90.50
2018-05-09T22:54:59.382Z,90.20
2018-05-09T22:57:28.644Z,90.50
2018-05-09T22:59:57.929Z,90.70
2018-05-09T23:02:27.268Z,92.40
2018-05-09T23:04:56.561Z,92.20
2018-05-09T23:07:25.838Z,91.90
2018-05-09T23:09:55.142Z,92.20
2018-05-09T23:12:24.442Z,93.10
2018-05-09T23:14:53.731Z,93.10
2018-05-09T23:17:23.031Z,92.20
2018-05-09T23:19:52.325Z,92.30
2018-05-09T23:22:21.626Z,93.10
2018-05-09T23:24:50.964Z,94.40
2018-05-09T23:27:20.227Z,94.00
2018-05-09T23:29:49.525Z,93.80
2018-05-09T23:32:18.812Z,93.70
2018-05-09T23:34:48.910Z,93.10
2018-05-09T23:37:18.226Z,93.00
2018-05-09T23:39:47.513Z,93.30
2018-05-09T23:42:16.821Z,93.60
2018-05-09T23:44:46.107Z,94.10
2018-05-09T23:47:15.414Z,94.70
2018-05-09T23:49:44.704Z,95.10
2018-05-09T23:52:14.097Z,95.10
2018-05-09T23:54:43.397Z,95.40
2018-05-09T23:57:12.611Z,95.20
2018-05-09T23:59:41.912Z,95.30
